Time;durP1;ratioP1;P1;durP2;ratioP2;P2;SDS_P1;SDS_P2;PMS_P1;PMS_P2;Temp;Humidity;BMP_temperature;BMP_pressure;BME280_temperature;BME280_humidity;BME280_pressure;Samples;Min_cycle;Max_cycle;Signal;HPM_P1;HPM_P2
2021/09/20 00:00:18;;;;;;;21.47;9.37;;;9.50;99.90;;;;;;4428038;28;656143;-70
2021/09/20 00:03:05;;;;;;;17.17;8.53;;;9.50;99.90;;;;;;4428721;28;656770;-70
2021/09/20 00:05:53;;;;;;;13.20;7.90;;;9.40;99.90;;;;;;4406020;28;656216;-70
2021/09/20 00:08:40;;;;;;;12.83;7.57;;;9.40;99.90;;;;;;4431223;28;656841;-70
2021/09/20 00:11:29;;;;;;;14.30;7.63;;;9.40;99.90;;;;;;4407980;28;656138;-70
2021/09/20 00:14:17;;;;;;;11.83;7.60;;;9.40;99.90;;;;;;4405413;28;656883;-70
2021/09/20 00:17:04;;;;;;;14.57;7.43;;;9.30;99.90;;;;;;4431581;28;657955;-70
2021/09/20 00:19:52;;;;;;;15.93;8.53;;;9.30;99.90;;;;;;4404565;28;656556;-70
2021/09/20 00:22:39;;;;;;;15.70;7.53;;;9.40;99.90;;;;;;4425633;28;656626;-70
2021/09/20 00:25:27;;;;;;;16.77;8.40;;;9.30;99.90;;;;;;4408466;28;657336;-70
2021/09/20 00:28:16;;;;;;;13.97;7.80;;;9.30;99.90;;;;;;4428099;28;657377;-70
2021/09/20 00:31:04;;;;;;;13.90;7.90;;;9.30;99.90;;;;;;4408382;28;657934;-70
2021/09/20 00:33:52;;;;;;;12.33;7.50;;;9.30;99.90;;;;;;4422697;28;656387;-70
2021/09/20 00:36:39;;;;;;;11.10;7.23;;;9.30;99.90;;;;;;4428128;28;658199;-70
2021/09/20 00:39:27;;;;;;;14.73;8.47;;;9.20;99.90;;;;;;4407695;28;656830;-70
2021/09/20 00:42:14;;;;;;;18.63;8.73;;;9.30;99.90;;;;;;4433633;28;657518;-70
2021/09/20 00:45:05;;;;;;;13.73;8.23;;;9.30;99.90;;;;;;4408772;28;656394;-70
2021/09/20 00:47:52;;;;;;;17.70;8.47;;;9.30;99.90;;;;;;4395421;28;656451;-70
2021/09/20 00:50:40;;;;;;;15.10;8.57;;;9.30;99.90;;;;;;4432356;28;657396;-71
2021/09/20 00:53:27;;;;;;;19.43;10.10;;;9.30;99.90;;;;;;4412566;28;656172;-70
2021/09/20 00:56:15;;;;;;;18.60;8.67;;;9.30;99.90;;;;;;4434010;28;658949;-70
2021/09/20 00:59:02;;;;;;;17.37;9.33;;;9.30;99.90;;;;;;4412410;28;656714;-70
2021/09/20 01:01:51;;;;;;;16.37;8.53;;;9.30;99.90;;;;;;4431880;28;657703;-70
2021/09/20 01:04:39;;;;;;;17.40;8.53;;;9.30;99.90;;;;;;4405346;28;657142;-70
2021/09/20 01:07:26;;;;;;;16.97;9.43;;;9.40;99.90;;;;;;4431517;28;656819;-70
2021/09/20 01:10:14;;;;;;;15.07;8.33;;;9.40;99.90;;;;;;4400571;28;658099;-70
2021/09/20 01:13:02;;;;;;;18.30;8.93;;;9.40;99.90;;;;;;4397046;28;655958;-70
2021/09/20 01:15:49;;;;;;;15.77;9.50;;;9.40;99.90;;;;;;4405147;28;657693;-70
2021/09/20 01:18:38;;;;;;;18.00;8.57;;;9.30;99.90;;;;;;4384815;28;657262;-70
2021/09/20 01:21:26;;;;;;;16.00;8.47;;;9.30;99.90;;;;;;4411415;28;657063;-70
2021/09/20 01:24:15;;;;;;;12.20;8.30;;;9.30;99.90;;;;;;4387135;28;657282;-70
2021/09/20 01:27:04;;;;;;;16.93;8.73;;;9.30;99.90;;;;;;4386524;28;656603;-70
2021/09/20 01:29:52;;;;;;;14.80;8.73;;;9.20;99.90;;;;;;4409034;28;656312;-70
2021/09/20 01:32:39;;;;;;;17.87;8.97;;;9.20;99.90;;;;;;4391392;28;656853;-70
2021/09/20 01:35:27;;;;;;;18.15;9.27;;;9.20;99.90;;;;;;4397530;28;656608;-70
2021/09/20 01:38:15;;;;;;;15.23;8.80;;;9.20;99.90;;;;;;4399508;28;656763;-70
2021/09/20 01:41:07;;;;;;;15.47;8.60;;;9.20;99.90;;;;;;4378303;28;656375;-70
2021/09/20 01:43:54;;;;;;;17.13;8.60;;;9.30;99.90;;;;;;4382957;28;657752;-70
2021/09/20 01:46:43;;;;;;;17.67;8.70;;;9.30;99.90;;;;;;4387884;28;656763;-70
2021/09/20 01:49:30;;;;;;;14.20;8.87;;;9.30;99.90;;;;;;4408405;28;657353;-70
2021/09/20 01:52:18;;;;;;;14.60;9.03;;;9.30;99.90;;;;;;4384363;28;656265;-70
2021/09/20 01:55:06;;;;;;;16.90;8.80;;;9.40;99.90;;;;;;4395039;28;657010;-70
2021/09/20 01:57:55;;;;;;;17.63;9.03;;;9.30;99.90;;;;;;4384043;28;656913;-71
2021/09/20 02:00:45;;;;;;;17.50;9.90;;;9.40;99.90;;;;;;4390648;28;656226;-71
2021/09/20 02:03:33;;;;;;;17.10;9.33;;;9.40;99.90;;;;;;4393087;28;656646;-71
2021/09/20 02:06:21;;;;;;;14.20;8.90;;;9.40;99.90;;;;;;4410506;28;657015;-70
2021/09/20 02:09:10;;;;;;;20.97;10.10;;;9.40;99.90;;;;;;4377076;28;656077;-71
2021/09/20 02:11:58;;;;;;;18.50;10.47;;;9.40;99.90;;;;;;4395262;28;657539;-70
2021/09/20 02:14:47;;;;;;;20.03;9.80;;;9.40;99.90;;;;;;4420871;28;657448;-70
2021/09/20 02:17:34;;;;;;;17.83;10.37;;;9.40;99.90;;;;;;4407727;28;657116;-71
2021/09/20 02:20:23;;;;;;;17.03;9.77;;;9.40;99.90;;;;;;4406512;28;657813;-70
2021/09/20 02:23:13;;;;;;;17.37;10.07;;;9.40;99.90;;;;;;4427600;28;656901;-70
2021/09/20 02:26:00;;;;;;;22.67;10.13;;;9.30;99.90;;;;;;4406125;28;657550;-70
2021/09/20 02:28:48;;;;;;;19.97;10.27;;;9.30;99.90;;;;;;4402176;28;657328;-70
2021/09/20 02:31:37;;;;;;;15.70;10.37;;;9.30;99.90;;;;;;4423046;28;658276;-70
2021/09/20 02:34:24;;;;;;;16.07;9.87;;;9.30;99.90;;;;;;4406158;28;658738;-70
2021/09/20 02:37:12;;;;;;;17.00;10.50;;;9.30;99.90;;;;;;4411367;28;656487;-70
2021/09/20 02:40:00;;;;;;;18.25;10.18;;;9.30;99.90;;;;;;4419647;28;658522;-71
2021/09/20 02:42:47;;;;;;;19.20;10.33;;;9.20;99.90;;;;;;4393148;28;657504;-71
2021/09/20 02:45:35;;;;;;;18.40;9.80;;;9.30;99.90;;;;;;4412009;28;658962;-70
2021/09/20 02:48:24;;;;;;;24.63;10.37;;;9.30;99.90;;;;;;4394240;28;656629;-70
2021/09/20 02:51:12;;;;;;;22.23;10.40;;;9.30;99.90;;;;;;4404263;28;657914;-71
2021/09/20 02:53:59;;;;;;;16.57;10.57;;;9.30;99.90;;;;;;4409987;28;657954;-70
2021/09/20 02:56:47;;;;;;;20.53;10.60;;;9.30;99.90;;;;;;4400217;28;658060;-70
2021/09/20 02:59:34;;;;;;;16.63;9.90;;;9.30;99.90;;;;;;4419969;28;658887;-70
2021/09/20 03:02:22;;;;;;;17.33;10.23;;;9.30;99.90;;;;;;4405884;28;656766;-70
2021/09/20 03:05:11;;;;;;;18.10;10.50;;;9.40;99.90;;;;;;4427387;28;658973;-70
2021/09/20 03:07:59;;;;;;;16.57;10.40;;;9.40;99.90;;;;;;4405535;28;659239;-70
2021/09/20 03:10:47;;;;;;;16.50;9.93;;;9.40;99.90;;;;;;4422870;28;657359;-71
2021/09/20 03:13:35;;;;;;;17.13;10.10;;;9.40;99.90;;;;;;4403077;28;657769;-70
2021/09/20 03:16:22;;;;;;;18.47;9.97;;;9.40;99.90;;;;;;4375336;28;658383;-70
2021/09/20 03:19:09;;;;;;;18.80;10.37;;;9.40;99.90;;;;;;4409065;28;657865;-70
2021/09/20 03:21:58;;;;;;;15.97;10.47;;;9.40;99.90;;;;;;4386540;28;657479;-70
2021/09/20 03:24:46;;;;;;;16.53;10.03;;;9.40;99.90;;;;;;4409479;28;658111;-70
2021/09/20 03:27:34;;;;;;;18.73;9.50;;;9.40;99.90;;;;;;4390966;28;658523;-70
2021/09/20 03:30:21;;;;;;;17.40;9.13;;;9.40;99.90;;;;;;4409250;28;657056;-71
2021/09/20 03:33:09;;;;;;;20.53;10.00;;;9.40;99.90;;;;;;4384068;28;657338;-71
2021/09/20 03:35:57;;;;;;;18.20;10.03;;;9.40;99.90;;;;;;4413949;28;658050;-71
2021/09/20 03:38:46;;;;;;;14.90;9.77;;;9.40;99.90;;;;;;4409571;28;658390;-71
2021/09/20 03:41:33;;;;;;;15.67;9.17;;;9.40;99.90;;;;;;4375136;28;656688;-70
2021/09/20 03:44:21;;;;;;;16.70;9.37;;;9.30;99.90;;;;;;4402126;28;656220;-70
2021/09/20 03:47:08;;;;;;;20.37;9.77;;;9.30;99.90;;;;;;4376193;28;657569;-70
2021/09/20 03:49:56;;;;;;;18.53;9.43;;;9.30;99.90;;;;;;4399442;28;657418;-70
2021/09/20 03:52:47;;;;;;;16.50;9.60;;;9.30;99.90;;;;;;4394646;28;657521;-70
2021/09/20 03:55:36;;;;;;;16.20;9.30;;;9.30;99.90;;;;;;4381669;28;657661;-70
2021/09/20 03:58:24;;;;;;;16.33;9.80;;;9.30;99.90;;;;;;4389978;28;658419;-70
2021/09/20 04:01:12;;;;;;;14.87;8.90;;;9.30;99.90;;;;;;4412947;28;657031;-71
2021/09/20 04:03:59;;;;;;;16.17;9.63;;;9.30;99.90;;;;;;4414293;28;657794;-71
2021/09/20 04:06:47;;;;;;;14.77;8.87;;;9.30;99.90;;;;;;4395507;28;657083;-71
2021/09/20 04:09:34;;;;;;;15.90;8.87;;;9.30;99.90;;;;;;4401275;28;657832;-70
2021/09/20 04:12:23;;;;;;;15.00;9.27;;;9.30;99.90;;;;;;4412300;28;656453;-70
2021/09/20 04:15:12;;;;;;;15.50;8.95;;;9.30;99.90;;;;;;4420827;28;656917;-70
2021/09/20 04:17:59;;;;;;;21.17;9.87;;;9.30;99.90;;;;;;4397998;28;657175;-69
2021/09/20 04:20:48;;;;;;;16.20;9.13;;;9.30;99.90;;;;;;4412951;28;656851;-69
2021/09/20 04:23:36;;;;;;;17.40;10.03;;;9.30;99.90;;;;;;4420458;28;656250;-69
2021/09/20 04:26:23;;;;;;;16.60;9.50;;;9.20;99.90;;;;;;4397582;28;657375;-69
2021/09/20 04:29:12;;;;;;;19.73;9.77;;;9.20;99.90;;;;;;4428627;28;657050;-69
2021/09/20 04:32:00;;;;;;;14.83;9.60;;;9.20;99.90;;;;;;4409384;28;656462;-69
2021/09/20 04:35:37;;;;;;;17.90;10.17;;;9.30;99.90;;;;;;4412147;28;656950;-69
2021/09/20 04:39:16;;;;;;;15.17;9.77;;;9.30;99.90;;;;;;4386042;28;657923;-69
2021/09/20 04:42:04;;;;;;;18.37;10.70;;;9.30;99.90;;;;;;4408861;28;657450;-69
2021/09/20 04:44:53;;;;;;;19.43;10.70;;;9.30;99.90;;;;;;4403832;28;657658;-69
2021/09/20 04:47:41;;;;;;;19.80;10.87;;;9.30;99.90;;;;;;4416232;28;657674;-69
2021/09/20 04:50:29;;;;;;;18.00;10.00;;;9.30;99.90;;;;;;4412286;28;658376;-69
2021/09/20 04:53:16;;;;;;;17.10;10.77;;;9.30;99.90;;;;;;4419442;28;657971;-70
2021/09/20 04:56:04;;;;;;;16.23;10.38;;;9.30;99.90;;;;;;4412345;28;658812;-69
2021/09/20 04:58:52;;;;;;;17.07;10.17;;;9.30;99.90;;;;;;4411436;28;657754;-69
2021/09/20 05:01:41;;;;;;;18.20;10.13;;;9.40;99.90;;;;;;4430036;28;658776;-69
2021/09/20 05:04:28;;;;;;;17.37;10.30;;;9.40;99.90;;;;;;4407136;28;658443;-69
2021/09/20 05:07:16;;;;;;;14.03;9.83;;;9.40;99.90;;;;;;4428355;28;657963;-69
2021/09/20 05:10:04;;;;;;;16.77;10.63;;;9.30;99.90;;;;;;4407889;28;657527;-69
2021/09/20 05:12:52;;;;;;;17.07;9.97;;;9.30;99.90;;;;;;4407683;28;657671;-69
2021/09/20 05:15:40;;;;;;;19.20;10.90;;;9.40;99.90;;;;;;4416506;28;657951;-69
2021/09/20 05:18:29;;;;;;;19.00;10.77;;;9.50;99.90;;;;;;4402469;28;657775;-69
2021/09/20 05:21:16;;;;;;;17.20;10.93;;;9.60;99.90;;;;;;4407974;28;657966;-69
2021/09/20 05:24:04;;;;;;;17.27;9.80;;;9.60;99.90;;;;;;4390454;28;658813;-69
2021/09/20 05:26:52;;;;;;;15.30;9.97;;;9.60;99.90;;;;;;4417168;28;657582;-69
2021/09/20 05:29:39;;;;;;;15.23;10.13;;;9.70;99.90;;;;;;4421063;28;657769;-69
2021/09/20 05:32:27;;;;;;;17.33;9.23;;;9.70;99.90;;;;;;4396698;28;657727;-69
2021/09/20 05:35:16;;;;;;;11.73;8.43;;;9.80;99.90;;;;;;4426712;28;656358;-69
2021/09/20 05:38:03;;;;;;;12.50;7.50;;;9.70;99.90;;;;;;4394936;28;657961;-69
2021/09/20 05:40:51;;;;;;;11.00;6.93;;;9.70;99.90;;;;;;4421615;28;657211;-69
2021/09/20 05:43:38;;;;;;;11.50;6.60;;;9.80;99.90;;;;;;4377790;28;657304;-69
2021/09/20 05:46:26;;;;;;;16.40;7.20;;;9.80;99.90;;;;;;4411612;28;657185;-69
2021/09/20 05:49:14;;;;;;;11.70;6.10;;;9.80;99.90;;;;;;4399305;28;657750;-69
2021/09/20 05:52:03;;;;;;;9.50;5.90;;;9.80;99.90;;;;;;4408149;28;657025;-69
2021/09/20 05:54:50;;;;;;;9.00;5.83;;;9.80;99.90;;;;;;4383601;28;656526;-70
2021/09/20 05:57:38;;;;;;;13.43;5.57;;;9.90;99.90;;;;;;4387786;28;655182;-69
2021/09/20 06:00:25;;;;;;;9.47;5.60;;;9.90;99.90;;;;;;4425775;28;657101;-70
2021/09/20 06:03:13;;;;;;;10.30;5.38;;;10.00;99.90;;;;;;4392860;28;655609;-69
2021/09/20 06:06:01;;;;;;;8.87;5.40;;;10.10;99.80;;;;;;4411762;28;657948;-70
2021/09/20 06:08:50;;;;;;;9.70;5.67;;;10.10;83.60;;;;;;4407818;28;657921;-69
2021/09/20 06:11:37;;;;;;;8.27;5.07;;;10.10;64.50;;;;;;4388301;28;656874;-69
2021/09/20 06:14:25;;;;;;;9.13;5.27;;;10.20;61.20;;;;;;4429285;28;657383;-69
2021/09/20 06:17:13;;;;;;;8.37;5.73;;;10.20;44.00;;;;;;4399382;28;656551;-70
2021/09/20 06:20:00;;;;;;;11.00;5.10;;;10.20;44.70;;;;;;4426722;28;657424;-69
2021/09/20 06:22:48;;;;;;;7.77;4.47;;;10.20;22.30;;;;;;4403463;28;657553;-69
2021/09/20 06:25:37;;;;;;;12.87;5.67;;;10.20;37.00;;;;;;4423322;28;657311;-69
2021/09/20 06:28:24;;;;;;;9.27;5.30;;;10.20;34.00;;;;;;4399065;28;658409;-69
2021/09/20 06:31:12;;;;;;;9.83;4.93;;;10.10;12.10;;;;;;4410754;28;656413;-69
2021/09/20 06:34:00;;;;;;;8.00;5.23;;;10.10;12.30;;;;;;4431977;28;657001;-69
2021/09/20 06:36:47;;;;;;;11.13;5.47;;;10.00;21.40;;;;;;4396768;28;656424;-69
2021/09/20 06:39:35;;;;;;;10.53;5.50;;;10.00;25.30;;;;;;4419241;28;658335;-69
2021/09/20 06:42:24;;;;;;;8.77;5.13;;;10.10;31.20;;;;;;4407544;28;657584;-69
2021/09/20 06:45:12;;;;;;;9.50;5.57;;;10.00;19.90;;;;;;4411728;28;656452;-69
2021/09/20 06:48:01;;;;;;;8.00;5.03;;;9.90;8.40;;;;;;4427611;28;657760;-69
2021/09/20 06:50:49;;;;;;;10.17;5.63;;;9.80;3.60;;;;;;4386044;28;655491;-69
2021/09/20 06:53:36;;;;;;;8.00;4.97;;;9.70;1.00;;;;;;4414642;28;656030;-69
2021/09/20 06:56:24;;;;;;;8.17;5.23;;;9.80;1.00;;;;;;4387197;28;655453;-69
2021/09/20 06:59:13;;;;;;;8.60;4.83;;;9.80;1.00;;;;;;4417479;28;654412;-69
2021/09/20 07:02:01;;;;;;;8.20;4.78;;;9.90;1.00;;;;;;4415795;28;654545;-69
2021/09/20 07:04:49;;;;;;;5.83;4.40;;;10.00;1.00;;;;;;4392023;28;655830;-69
2021/09/20 07:07:37;;;;;;;6.40;4.03;;;10.20;1.00;;;;;;4409324;28;655465;-69
2021/09/20 07:10:25;;;;;;;6.40;4.20;;;10.30;1.00;;;;;;4435022;28;656856;-69
2021/09/20 07:13:12;;;;;;;6.70;3.80;;;10.40;1.00;;;;;;4412494;28;655706;-69
2021/09/20 07:16:01;;;;;;;8.23;4.53;;;10.50;1.00;;;;;;4430682;28;656146;-69
2021/09/20 07:18:49;;;;;;;6.20;4.47;;;10.70;1.00;;;;;;4414168;28;657038;-69
2021/09/20 07:21:36;;;;;;;6.03;4.40;;;10.80;1.00;;;;;;4436886;28;656004;-69
2021/09/20 07:24:24;;;;;;;7.17;4.20;;;10.80;1.00;;;;;;4414341;28;656363;-69
2021/09/20 07:27:12;;;;;;;7.73;4.10;;;10.70;1.00;;;;;;4429707;28;655292;-69
2021/09/20 07:29:59;;;;;;;7.00;4.07;;;10.80;1.00;;;;;;4436913;28;657072;-69
2021/09/20 07:32:49;;;;;;;6.23;3.77;;;11.00;1.00;;;;;;4409707;28;655715;-69
2021/09/20 07:35:37;;;;;;;7.50;4.30;;;11.10;1.00;;;;;;4427057;28;655732;-69
2021/09/20 07:38:24;;;;;;;6.23;4.00;;;11.50;1.00;;;;;;4431994;28;657237;-69
2021/09/20 07:41:12;;;;;;;6.90;4.40;;;11.60;1.00;;;;;;4414907;28;656019;-69
2021/09/20 07:44:00;;;;;;;5.33;4.00;;;11.60;1.00;;;;;;4440860;28;656174;-69
2021/09/20 07:46:47;;;;;;;7.13;3.90;;;11.80;1.00;;;;;;4402970;28;655277;-69
2021/09/20 07:49:36;;;;;;;6.13;3.50;;;12.00;1.00;;;;;;4441272;28;656301;-69
2021/09/20 07:52:23;;;;;;;5.70;3.17;;;12.30;1.00;;;;;;4417998;28;656396;-69
2021/09/20 07:55:11;;;;;;;5.75;3.08;;;12.40;1.00;;;;;;4437013;28;655994;-69
2021/09/20 07:57:59;;;;;;;4.43;3.37;;;12.30;1.00;;;;;;4413805;28;656843;-69
2021/09/20 08:00:46;;;;;;;4.23;3.27;;;12.60;1.00;;;;;;4439811;28;655040;-69
2021/09/20 08:03:34;;;;;;;4.10;3.00;;;12.60;1.00;;;;;;4405010;28;656602;-69
2021/09/20 08:06:23;;;;;;;3.43;2.80;;;12.80;1.00;;;;;;4435682;28;655673;-69
2021/09/20 08:09:11;;;;;;;3.63;2.57;;;13.10;1.00;;;;;;4412276;28;655961;-70
2021/09/20 08:11:59;;;;;;;3.53;2.60;;;13.20;1.00;;;;;;4399445;28;657759;-69
2021/09/20 08:14:46;;;;;;;3.77;2.73;;;13.10;1.00;;;;;;4423568;28;655706;-70
2021/09/20 08:17:34;;;;;;;4.87;3.20;;;13.00;1.00;;;;;;4405706;28;656593;-69
2021/09/20 08:20:22;;;;;;;3.67;3.00;;;12.90;1.00;;;;;;4433457;28;655433;-69
2021/09/20 08:23:11;;;;;;;4.37;2.53;;;13.00;1.00;;;;;;4435520;28;655962;-69
2021/09/20 08:25:59;;;;;;;3.73;2.70;;;13.00;1.00;;;;;;4408353;28;656231;-69
2021/09/20 08:28:47;;;;;;;9.50;2.77;;;13.00;1.00;;;;;;4430738;28;655448;-69
2021/09/20 08:31:35;;;;;;;3.60;2.70;;;12.70;1.00;;;;;;4431966;28;655859;-69
2021/09/20 08:34:22;;;;;;;4.27;2.30;;;12.30;1.00;;;;;;4413443;28;655728;-69
2021/09/20 08:37:10;;;;;;;3.90;2.53;;;12.10;1.00;;;;;;4430118;28;655357;-69
2021/09/20 08:39:59;;;;;;;4.37;2.70;;;12.00;1.00;;;;;;4405534;28;655466;-69
2021/09/20 08:42:47;;;;;;;2.83;2.30;;;11.90;1.00;;;;;;4409662;28;655347;-69
2021/09/20 08:45:34;;;;;;;4.30;2.93;;;11.70;1.00;;;;;;4427967;28;656736;-69
2021/09/20 08:48:22;;;;;;;2.77;2.33;;;11.80;1.00;;;;;;4406344;28;655990;-69
2021/09/20 08:51:10;;;;;;;3.47;2.30;;;12.10;1.00;;;;;;4431797;28;656724;-69
2021/09/20 08:53:58;;;;;;;4.83;2.73;;;12.50;1.00;;;;;;4408900;28;655932;-69
2021/09/20 08:56:47;;;;;;;4.13;2.47;;;13.20;1.00;;;;;;4434684;28;655613;-69
2021/09/20 08:59:35;;;;;;;2.50;1.90;;;13.60;1.00;;;;;;4407557;28;656534;-69
2021/09/20 09:02:23;;;;;;;2.27;2.07;;;13.50;99.90;;;;;;4414029;28;655523;-69
2021/09/20 09:05:15;;;;;;;2.57;2.10;;;13.40;99.90;;;;;;4410672;28;657532;-69
2021/09/20 09:08:04;;;;;;;3.53;2.20;;;12.90;99.90;;;;;;4382577;28;657269;-69
2021/09/20 09:11:00;;;;;;;5.37;2.30;;;12.90;99.90;;;;;;4406022;28;656813;-69
2021/09/20 09:13:50;;;;;;;2.77;2.00;;;12.70;99.90;;;;;;4366101;28;657049;-69
2021/09/20 09:16:37;;;;;;;2.00;1.60;;;13.00;99.90;;;;;;4405272;28;656126;-69
2021/09/20 09:19:25;;;;;;;5.23;2.20;;;13.40;99.90;;;;;;4415847;28;658734;-69
2021/09/20 09:22:14;;;;;;;2.47;1.80;;;14.00;99.90;;;;;;4405808;28;658375;-70
2021/09/20 09:25:05;;;;;;;2.50;2.00;;;14.10;72.90;;;;;;4408150;28;656490;-69
2021/09/20 09:27:54;;;;;;;3.10;2.10;;;13.90;1.00;;;;;;4400609;28;656283;-69
2021/09/20 09:30:44;;;;;;;3.13;1.70;;;13.40;1.00;;;;;;4411940;28;655455;-69
2021/09/20 09:33:37;;;;;;;2.10;1.90;;;12.70;1.00;;;;;;4413412;28;655298;-69
2021/09/20 09:36:31;;;;;;;2.90;2.30;;;12.40;1.00;;;;;;4408171;28;655833;-69
2021/09/20 09:39:27;;;;;;;8.13;2.90;;;12.20;1.00;;;;;;4386444;28;656203;-68
2021/09/20 09:42:23;;;;;;;4.17;2.90;;;11.90;8.30;;;;;;4401469;28;655770;-69
2021/09/20 09:45:18;;;;;;;4.83;3.30;;;11.70;99.90;;;;;;4408007;28;656833;-68
2021/09/20 09:48:12;;;;;;;5.03;3.43;;;11.40;99.90;;;;;;4392441;28;656981;-68
2021/09/20 09:51:01;;;;;;;5.43;3.30;;;11.30;99.90;;;;;;4393241;28;656952;-68
2021/09/20 09:53:49;;;;;;;5.10;3.43;;;11.20;99.90;;;;;;4404157;28;656284;-69
2021/09/20 09:56:37;;;;;;;11.67;4.37;;;11.20;99.90;;;;;;4416645;28;656726;-69
2021/09/20 09:59:27;;;;;;;8.03;4.30;;;11.30;99.90;;;;;;4425840;28;658182;-68
2021/09/20 10:02:18;;;;;;;5.40;3.83;;;11.40;99.90;;;;;;4391114;28;657635;-68
2021/09/20 10:05:09;;;;;;;3.60;2.90;;;11.60;99.90;;;;;;4408871;28;656708;-68
2021/09/20 10:07:57;;;;;;;5.07;3.77;;;11.70;99.90;;;;;;4383300;28;656541;-69
2021/09/20 10:10:45;;;;;;;3.93;3.07;;;11.80;99.90;;;;;;4418250;28;656920;-68
2021/09/20 10:13:32;;;;;;;5.27;3.63;;;11.80;99.90;;;;;;4407230;28;656977;-68
2021/09/20 10:16:20;;;;;;;5.07;3.37;;;11.90;99.90;;;;;;4430548;28;656558;-69
2021/09/20 10:19:07;;;;;;;2.77;2.07;;;11.70;99.90;;;;;;4412319;28;656605;-68
2021/09/20 10:21:57;;;;;;;4.60;2.37;;;11.40;99.90;;;;;;4431055;28;656921;-68
2021/09/20 10:24:45;;;;;;;4.43;2.60;;;11.00;99.90;;;;;;4391876;28;656722;-68
2021/09/20 10:27:32;;;;;;;2.67;1.80;;;10.90;99.90;;;;;;4409679;28;657268;-69
2021/09/20 10:30:25;;;;;;;3.65;1.92;;;10.90;99.90;;;;;;4423289;28;657794;-68
2021/09/20 10:33:13;;;;;;;4.60;2.20;;;11.00;99.90;;;;;;4385256;28;657084;-69
2021/09/20 10:36:01;;;;;;;4.47;1.70;;;11.30;99.90;;;;;;4421743;28;656665;-69
2021/09/20 10:38:52;;;;;;;2.70;1.70;;;11.40;99.90;;;;;;4402560;28;656705;-68
2021/09/20 10:41:40;;;;;;;2.40;1.60;;;11.40;99.90;;;;;;4412630;28;657590;-68
2021/09/20 10:44:27;;;;;;;1.60;1.30;;;11.50;99.90;;;;;;4406933;28;657495;-69
2021/09/20 10:47:16;;;;;;;1.73;1.20;;;11.60;99.90;;;;;;4429685;28;657898;-68
2021/09/20 10:50:05;;;;;;;3.73;1.20;;;11.70;99.90;;;;;;4391437;28;657743;-69
2021/09/20 10:53:17;;;;;;;1.67;1.10;;;11.60;99.60;;;;;;4400649;28;656711;-69
2021/09/20 10:56:19;;;;;;;1.37;1.10;;;11.60;86.20;;;;;;4372250;28;656858;-69
2021/09/20 10:59:28;;;;;;;20.13;6.20;;;11.60;59.00;;;;;;4376447;28;656259;-69
2021/09/20 11:02:20;;;;;;;11.13;3.33;;;11.70;99.90;;;;;;4397339;28;658275;-68
2021/09/20 11:05:08;;;;;;;9.13;3.30;;;11.90;99.90;;;;;;4378596;28;658089;-69
2021/09/20 11:07:58;;;;;;;7.60;3.10;;;11.90;91.10;;;;;;4412588;28;656928;-68
2021/09/20 11:10:45;;;;;;;6.87;3.33;;;11.80;65.50;;;;;;4390003;28;657662;-68
2021/09/20 11:13:42;;;;;;;5.87;2.37;;;11.90;38.10;;;;;;4394633;28;656474;-69
2021/09/20 11:16:49;;;;;;;3.30;1.70;;;11.90;1.00;;;;;;4404916;28;656437;-68
2021/09/20 11:19:44;;;;;;;1.47;1.20;;;11.90;30.80;;;;;;4395695;28;655708;-69
2021/09/20 11:22:33;;;;;;;1.95;1.20;;;11.70;1.00;;;;;;4393027;28;657293;-69
2021/09/20 11:25:20;;;;;;;3.93;1.80;;;11.60;1.00;;;;;;4423484;28;656894;-68
2021/09/20 11:28:08;;;;;;;7.67;2.23;;;11.50;10.20;;;;;;4406006;28;655557;-69
2021/09/20 11:30:57;;;;;;;6.53;2.17;;;11.50;90.40;;;;;;4423019;28;656553;-68
2021/09/20 11:33:45;;;;;;;15.00;4.80;;;11.50;99.90;;;;;;4398271;28;657532;-68
2021/09/20 11:36:35;;;;;;;3.05;1.65;;;11.70;99.90;;;;;;4396512;28;657513;-69
2021/09/20 11:39:22;;;;;;;10.97;3.30;;;12.00;99.90;;;;;;4399483;28;656924;-68
2021/09/20 11:42:10;;;;;;;12.53;4.13;;;12.10;99.90;;;;;;4413538;28;658087;-68
2021/09/20 11:44:58;;;;;;;2.67;1.40;;;12.30;99.90;;;;;;4400780;28;657581;-69
2021/09/20 11:47:50;;;;;;;3.08;1.40;;;12.50;99.90;;;;;;4414653;28;656770;-68
2021/09/20 11:50:41;;;;;;;2.10;1.27;;;12.50;21.10;;;;;;4377538;28;657043;-69
2021/09/20 11:53:28;;;;;;;3.20;1.47;;;12.50;1.00;;;;;;4406640;28;658337;-68
2021/09/20 11:56:16;;;;;;;1.93;1.50;;;12.50;1.00;;;;;;4421052;28;654774;-68
2021/09/20 11:59:04;;;;;;;2.17;1.50;;;12.70;1.00;;;;;;4405891;28;656604;-68
2021/09/20 12:01:52;;;;;;;2.17;1.40;;;12.90;1.00;;;;;;4416771;28;655342;-69
2021/09/20 12:04:47;;;;;;;2.20;1.43;;;13.30;1.00;;;;;;4432271;28;656495;-68
2021/09/20 12:07:36;;;;;;;2.50;1.60;;;13.30;1.00;;;;;;4409316;28;655765;-68
2021/09/20 12:10:25;;;;;;;4.97;1.60;;;13.30;99.90;;;;;;4404361;28;655648;-69
2021/09/20 12:13:13;;;;;;;4.37;1.83;;;12.80;99.90;;;;;;4402900;28;656737;-69
2021/09/20 12:16:04;;;;;;;4.10;2.10;;;12.50;99.90;;;;;;4422045;28;656505;-68
2021/09/20 12:18:51;;;;;;;6.90;1.90;;;12.50;1.00;;;;;;4402020;28;657669;-69
2021/09/20 12:21:40;;;;;;;2.77;1.60;;;12.40;99.90;;;;;;4402913;28;656198;-68
2021/09/20 12:24:28;;;;;;;4.23;1.80;;;12.20;99.90;;;;;;4409719;28;656520;-68
2021/09/20 12:27:15;;;;;;;5.67;2.30;;;12.00;99.90;;;;;;4426220;28;656714;-68
2021/09/20 12:30:03;;;;;;;3.87;2.13;;;11.80;1.00;;;;;;4398332;28;656513;-69
2021/09/20 12:33:01;;;;;;;3.92;2.00;;;11.60;1.00;;;;;;4421163;28;656064;-68
2021/09/20 12:35:49;;;;;;;5.30;2.10;;;11.60;1.00;;;;;;4380043;28;655818;-68
2021/09/20 12:38:38;;;;;;;3.37;2.10;;;11.40;5.60;;;;;;4420455;28;655220;-69
2021/09/20 12:41:31;;;;;;;2.70;1.90;;;11.30;15.40;;;;;;4399347;28;656083;-68
2021/09/20 12:44:29;;;;;;;4.33;2.27;;;11.30;99.90;;;;;;4380303;28;656834;-68
2021/09/20 12:47:18;;;;;;;4.77;2.17;;;11.30;99.90;;;;;;4399656;28;656599;-68
2021/09/20 12:50:07;;;;;;;4.60;2.53;;;11.30;93.00;;;;;;4403073;28;657807;-68
2021/09/20 12:52:57;;;;;;;3.43;2.33;;;11.30;99.90;;;;;;4391011;28;657397;-67
2021/09/20 12:55:47;;;;;;;6.70;2.67;;;11.50;99.90;;;;;;4392985;28;657138;-69
2021/09/20 12:58:38;;;;;;;4.13;2.37;;;11.60;99.90;;;;;;4407191;28;657560;-68
2021/09/20 13:01:30;;;;;;;7.28;2.90;;;11.70;99.90;;;;;;4394425;28;656746;-68
2021/09/20 13:04:35;;;;;;;4.23;2.73;;;11.90;99.90;;;;;;4378072;28;656195;-69
2021/09/20 13:07:24;;;;;;;3.60;2.93;;;11.80;99.90;;;;;;4370270;28;656814;-68
2021/09/20 13:10:15;;;;;;;4.43;2.90;;;11.90;99.90;;;;;;4404631;28;656799;-68
2021/09/20 13:13:07;;;;;;;4.63;3.30;;;11.90;99.90;;;;;;4400958;28;656678;-68
2021/09/20 13:15:59;;;;;;;5.03;3.40;;;11.90;99.90;;;;;;4398049;28;657103;-68
2021/09/20 13:18:49;;;;;;;6.53;3.63;;;11.90;99.90;;;;;;4378626;28;656232;-68
2021/09/20 13:21:39;;;;;;;7.10;3.90;;;11.80;99.90;;;;;;4404029;28;656551;-69
2021/09/20 13:24:35;;;;;;;5.03;3.57;;;11.80;99.90;;;;;;4402905;28;656530;-68
2021/09/20 13:27:28;;;;;;;8.52;4.10;;;11.60;99.90;;;;;;4382671;28;657176;-68
2021/09/20 13:30:20;;;;;;;7.70;4.40;;;11.60;99.90;;;;;;4376223;28;657059;-68
2021/09/20 13:33:09;;;;;;;10.27;4.80;;;11.30;99.90;;;;;;4379750;28;656459;-68
2021/09/20 13:36:07;;;;;;;10.07;4.43;;;11.00;99.90;;;;;;4361111;28;657810;-68
2021/09/20 13:38:57;;;;;;;9.03;4.60;;;11.00;99.90;;;;;;4322358;28;658225;-68
2021/09/20 13:41:48;;;;;;;7.73;4.23;;;10.90;99.90;;;;;;4369448;28;656593;-68
2021/09/20 13:44:36;;;;;;;6.60;4.07;;;10.80;99.90;;;;;;4398963;28;656904;-68
2021/09/20 13:47:32;;;;;;;10.93;4.87;;;10.80;99.90;;;;;;4389562;28;656935;-68
2021/09/20 13:50:21;;;;;;;9.13;4.30;;;10.70;99.90;;;;;;4393575;28;657755;-68
2021/09/20 13:53:10;;;;;;;11.13;4.43;;;10.70;99.90;;;;;;4403946;28;657288;-68
2021/09/20 13:55:59;;;;;;;7.57;4.47;;;10.80;99.90;;;;;;4401425;28;657744;-68
2021/09/20 13:58:48;;;;;;;10.10;4.53;;;10.80;99.90;;;;;;4421431;28;656817;-68
2021/09/20 14:01:36;;;;;;;9.77;3.70;;;10.80;99.90;;;;;;4404550;28;658371;-68
2021/09/20 14:04:30;;;;;;;7.18;4.50;;;10.70;1.00;;;;;;4402124;28;656981;-68
2021/09/20 14:07:19;;;;;;;8.80;3.97;;;10.60;1.00;;;;;;4367396;28;655847;-68
2021/09/20 14:10:18;;;;;;;9.30;4.47;;;10.50;1.00;;;;;;4413265;28;655431;-69
2021/09/20 14:13:07;;;;;;;9.50;3.73;;;10.50;1.00;;;;;;4393493;28;655892;-68
2021/09/20 14:15:55;;;;;;;8.17;3.80;;;10.40;1.00;;;;;;4395708;28;655965;-68
2021/09/20 14:18:45;;;;;;;5.47;2.97;;;10.40;1.00;;;;;;4365801;28;656162;-69
2021/09/20 14:21:35;;;;;;;6.80;3.20;;;10.40;1.00;;;;;;4402338;28;655253;-68
2021/09/20 14:24:23;;;;;;;9.47;3.37;;;10.40;1.00;;;;;;4401990;28;655845;-68
2021/09/20 14:27:12;;;;;;;8.43;3.30;;;10.30;1.00;;;;;;4421738;28;655588;-69
2021/09/20 14:30:00;;;;;;;6.97;3.40;;;10.30;1.00;;;;;;4402072;28;656282;-68